sensor_id;sensor_type;location;lat;lon;timestamp;P1;durP1;ratioP1;P2;durP2;ratioP2
76310;SDS011;65120;59.304;18.294;2023-07-30T00:02:15;2.00;;;0.52;;
76310;SDS011;65120;59.304;18.294;2023-07-30T00:04:42;0.93;;;0.50;;
76310;SDS011;65120;59.304;18.294;2023-07-30T00:07:09;3.05;;;0.60;;
76310;SDS011;65120;59.304;18.294;2023-07-30T00:09:36;2.42;;;0.63;;
76310;SDS011;65120;59.304;18.294;2023-07-30T00:12:04;1.48;;;0.60;;
76310;SDS011;65120;59.304;18.294;2023-07-30T00:14:33;1.00;;;0.52;;
76310;SDS011;65120;59.304;18.294;2023-07-30T00:17:00;2.33;;;0.70;;
76310;SDS011;65120;59.304;18.294;2023-07-30T00:19:28;0.90;;;0.50;;
76310;SDS011;65120;59.304;18.294;2023-07-30T00:21:54;1.00;;;0.60;;
76310;SDS011;65120;59.304;18.294;2023-07-30T00:24:21;2.70;;;0.70;;
76310;SDS011;65120;59.304;18.294;2023-07-30T00:26:48;2.42;;;0.68;;
76310;SDS011;65120;59.304;18.294;2023-07-30T00:29:15;1.55;;;0.65;;
76310;SDS011;65120;59.304;18.294;2023-07-30T00:31:43;1.80;;;0.70;;
76310;SDS011;65120;59.304;18.294;2023-07-30T00:34:09;1.80;;;0.70;;
76310;SDS011;65120;59.304;18.294;2023-07-30T00:36:36;3.25;;;0.98;;
76310;SDS011;65120;59.304;18.294;2023-07-30T00:39:03;1.70;;;0.52;;
76310;SDS011;65120;59.304;18.294;2023-07-30T00:41:30;2.08;;;1.10;;
76310;SDS011;65120;59.304;18.294;2023-07-30T00:43:57;1.92;;;0.52;;
76310;SDS011;65120;59.304;18.294;2023-07-30T00:46:24;0.93;;;0.63;;
76310;SDS011;65120;59.304;18.294;2023-07-30T00:48:52;0.90;;;0.50;;
76310;SDS011;65120;59.304;18.294;2023-07-30T00:51:19;2.17;;;1.02;;
76310;SDS011;65120;59.304;18.294;2023-07-30T00:53:46;1.33;;;0.65;;
76310;SDS011;65120;59.304;18.294;2023-07-30T00:56:14;1.58;;;0.85;;
76310;SDS011;65120;59.304;18.294;2023-07-30T00:58:41;1.30;;;0.77;;
76310;SDS011;65120;59.304;18.294;2023-07-30T01:01:10;2.75;;;0.80;;
76310;SDS011;65120;59.304;18.294;2023-07-30T01:03:38;1.98;;;0.70;;
76310;SDS011;65120;59.304;18.294;2023-07-30T01:06:07;1.90;;;0.80;;
76310;SDS011;65120;59.304;18.294;2023-07-30T01:08:34;1.02;;;0.80;;
76310;SDS011;65120;59.304;18.294;2023-07-30T01:11:01;3.38;;;0.82;;
76310;SDS011;65120;59.304;18.294;2023-07-30T01:13:30;1.02;;;0.88;;
76310;SDS011;65120;59.304;18.294;2023-07-30T01:15:58;1.58;;;0.70;;
76310;SDS011;65120;59.304;18.294;2023-07-30T01:18:26;1.58;;;0.55;;
76310;SDS011;65120;59.304;18.294;2023-07-30T01:20:54;0.95;;;0.65;;
76310;SDS011;65120;59.304;18.294;2023-07-30T01:23:24;1.63;;;0.60;;
76310;SDS011;65120;59.304;18.294;2023-07-30T01:25:53;1.90;;;0.90;;
76310;SDS011;65120;59.304;18.294;2023-07-30T01:28:26;2.47;;;0.70;;
76310;SDS011;65120;59.304;18.294;2023-07-30T01:30:55;2.80;;;0.73;;
76310;SDS011;65120;59.304;18.294;2023-07-30T01:33:26;1.60;;;0.60;;
76310;SDS011;65120;59.304;18.294;2023-07-30T01:35:55;1.35;;;0.88;;
76310;SDS011;65120;59.304;18.294;2023-07-30T01:38:23;3.55;;;0.70;;
76310;SDS011;65120;59.304;18.294;2023-07-30T01:40:52;2.80;;;0.88;;
76310;SDS011;65120;59.304;18.294;2023-07-30T01:43:19;1.63;;;0.80;;
76310;SDS011;65120;59.304;18.294;2023-07-30T01:45:46;0.70;;;0.60;;
76310;SDS011;65120;59.304;18.294;2023-07-30T01:48:13;1.40;;;0.70;;
76310;SDS011;65120;59.304;18.294;2023-07-30T01:50:40;1.35;;;0.60;;
76310;SDS011;65120;59.304;18.294;2023-07-30T01:53:09;1.75;;;0.90;;
76310;SDS011;65120;59.304;18.294;2023-07-30T01:55:36;1.85;;;0.70;;
76310;SDS011;65120;59.304;18.294;2023-07-30T01:58:04;1.27;;;0.52;;
76310;SDS011;65120;59.304;18.294;2023-07-30T02:00:31;1.30;;;0.90;;
76310;SDS011;65120;59.304;18.294;2023-07-30T02:02:58;1.13;;;0.60;;
76310;SDS011;65120;59.304;18.294;2023-07-30T02:05:25;2.00;;;0.80;;
76310;SDS011;65120;59.304;18.294;2023-07-30T02:07:52;1.70;;;0.80;;
76310;SDS011;65120;59.304;18.294;2023-07-30T02:10:20;3.33;;;1.15;;
76310;SDS011;65120;59.304;18.294;2023-07-30T02:12:47;1.67;;;0.95;;
76310;SDS011;65120;59.304;18.294;2023-07-30T02:15:14;2.80;;;0.80;;
76310;SDS011;65120;59.304;18.294;2023-07-30T02:17:41;1.58;;;0.80;;
76310;SDS011;65120;59.304;18.294;2023-07-30T02:20:08;3.15;;;0.90;;
76310;SDS011;65120;59.304;18.294;2023-07-30T02:22:35;0.68;;;0.45;;
76310;SDS011;65120;59.304;18.294;2023-07-30T02:25:02;1.45;;;0.80;;
76310;SDS011;65120;59.304;18.294;2023-07-30T02:27:31;1.50;;;1.05;;
76310;SDS011;65120;59.304;18.294;2023-07-30T02:29:58;1.25;;;0.80;;
76310;SDS011;65120;59.304;18.294;2023-07-30T02:32:24;2.75;;;0.60;;
76310;SDS011;65120;59.304;18.294;2023-07-30T02:34:51;3.20;;;0.73;;
76310;SDS011;65120;59.304;18.294;2023-07-30T02:37:18;2.13;;;1.17;;
76310;SDS011;65120;59.304;18.294;2023-07-30T02:39:45;1.50;;;0.90;;
76310;SDS011;65120;59.304;18.294;2023-07-30T02:42:12;1.67;;;0.80;;
76310;SDS011;65120;59.304;18.294;2023-07-30T02:44:40;5.10;;;1.55;;
76310;SDS011;65120;59.304;18.294;2023-07-30T02:47:07;2.25;;;0.98;;
76310;SDS011;65120;59.304;18.294;2023-07-30T02:49:34;1.50;;;0.90;;
76310;SDS011;65120;59.304;18.294;2023-07-30T02:52:01;1.92;;;1.10;;
76310;SDS011;65120;59.304;18.294;2023-07-30T02:54:28;2.22;;;1.08;;
76310;SDS011;65120;59.304;18.294;2023-07-30T02:56:55;2.08;;;0.90;;
76310;SDS011;65120;59.304;18.294;2023-07-30T02:59:21;1.88;;;1.13;;
76310;SDS011;65120;59.304;18.294;2023-07-30T03:01:50;4.95;;;0.82;;
76310;SDS011;65120;59.304;18.294;2023-07-30T03:04:17;1.25;;;0.63;;
76310;SDS011;65120;59.304;18.294;2023-07-30T03:06:43;1.80;;;0.90;;
76310;SDS011;65120;59.304;18.294;2023-07-30T03:09:10;2.15;;;0.93;;
76310;SDS011;65120;59.304;18.294;2023-07-30T03:11:37;2.50;;;0.90;;
76310;SDS011;65120;59.304;18.294;2023-07-30T03:14:04;3.72;;;1.30;;
76310;SDS011;65120;59.304;18.294;2023-07-30T03:16:31;4.43;;;1.08;;
76310;SDS011;65120;59.304;18.294;2023-07-30T03:18:59;3.50;;;1.70;;
76310;SDS011;65120;59.304;18.294;2023-07-30T03:21:26;1.88;;;1.00;;
76310;SDS011;65120;59.304;18.294;2023-07-30T03:23:53;3.75;;;1.65;;
76310;SDS011;65120;59.304;18.294;2023-07-30T03:26:20;2.67;;;1.00;;
76310;SDS011;65120;59.304;18.294;2023-07-30T03:28:47;3.63;;;0.95;;
76310;SDS011;65120;59.304;18.294;2023-07-30T03:31:13;3.67;;;1.27;;
76310;SDS011;65120;59.304;18.294;2023-07-30T03:33:40;3.10;;;1.02;;
76310;SDS011;65120;59.304;18.294;2023-07-30T03:36:10;2.58;;;1.30;;
76310;SDS011;65120;59.304;18.294;2023-07-30T03:38:37;3.33;;;0.90;;
76310;SDS011;65120;59.304;18.294;2023-07-30T03:41:04;1.60;;;0.98;;
76310;SDS011;65120;59.304;18.294;2023-07-30T03:43:31;3.20;;;1.08;;
76310;SDS011;65120;59.304;18.294;2023-07-30T03:45:58;3.70;;;1.10;;
76310;SDS011;65120;59.304;18.294;2023-07-30T03:48:25;1.58;;;1.27;;
76310;SDS011;65120;59.304;18.294;2023-07-30T03:50:52;2.03;;;0.93;;
76310;SDS011;65120;59.304;18.294;2023-07-30T03:53:21;1.60;;;1.17;;
76310;SDS011;65120;59.304;18.294;2023-07-30T03:55:48;5.03;;;0.98;;
76310;SDS011;65120;59.304;18.294;2023-07-30T03:58:15;3.03;;;1.20;;
76310;SDS011;65120;59.304;18.294;2023-07-30T04:00:42;3.22;;;1.10;;
76310;SDS011;65120;59.304;18.294;2023-07-30T04:03:08;3.47;;;1.30;;
76310;SDS011;65120;59.304;18.294;2023-07-30T04:05:36;3.50;;;1.30;;
76310;SDS011;65120;59.304;18.294;2023-07-30T04:08:03;2.08;;;1.08;;
76310;SDS011;65120;59.304;18.294;2023-07-30T04:10:31;2.70;;;1.58;;
76310;SDS011;65120;59.304;18.294;2023-07-30T04:12:58;4.80;;;1.20;;
76310;SDS011;65120;59.304;18.294;2023-07-30T04:15:25;4.82;;;1.10;;
76310;SDS011;65120;59.304;18.294;2023-07-30T04:17:53;1.90;;;1.20;;
76310;SDS011;65120;59.304;18.294;2023-07-30T04:20:20;2.47;;;1.60;;
76310;SDS011;65120;59.304;18.294;2023-07-30T04:22:46;1.75;;;1.15;;
76310;SDS011;65120;59.304;18.294;2023-07-30T04:25:13;4.57;;;1.00;;
76310;SDS011;65120;59.304;18.294;2023-07-30T04:27:42;1.80;;;1.08;;
76310;SDS011;65120;59.304;18.294;2023-07-30T04:30:09;3.75;;;1.35;;
76310;SDS011;65120;59.304;18.294;2023-07-30T04:32:37;2.50;;;1.80;;
76310;SDS011;65120;59.304;18.294;2023-07-30T04:35:04;3.08;;;1.52;;
76310;SDS011;65120;59.304;18.294;2023-07-30T04:37:31;4.80;;;2.40;;
76310;SDS011;65120;59.304;18.294;2023-07-30T04:39:58;5.70;;;1.35;;
76310;SDS011;65120;59.304;18.294;2023-07-30T04:42:25;3.88;;;1.58;;
76310;SDS011;65120;59.304;18.294;2023-07-30T04:44:53;4.10;;;1.30;;
76310;SDS011;65120;59.304;18.294;2023-07-30T04:47:20;4.85;;;2.25;;
76310;SDS011;65120;59.304;18.294;2023-07-30T04:49:47;1.48;;;1.38;;
76310;SDS011;65120;59.304;18.294;2023-07-30T04:52:14;3.05;;;2.17;;
76310;SDS011;65120;59.304;18.294;2023-07-30T04:54:41;1.92;;;1.48;;
76310;SDS011;65120;59.304;18.294;2023-07-30T04:57:08;2.80;;;1.65;;
76310;SDS011;65120;59.304;18.294;2023-07-30T04:59:35;4.57;;;1.90;;
76310;SDS011;65120;59.304;18.294;2023-07-30T05:02:04;2.47;;;1.40;;
76310;SDS011;65120;59.304;18.294;2023-07-30T05:04:31;4.20;;;1.40;;
76310;SDS011;65120;59.304;18.294;2023-07-30T05:06:58;5.35;;;1.73;;
76310;SDS011;65120;59.304;18.294;2023-07-30T05:09:25;3.50;;;1.52;;
76310;SDS011;65120;59.304;18.294;2023-07-30T05:11:52;5.13;;;1.92;;
76310;SDS011;65120;59.304;18.294;2023-07-30T05:14:19;3.20;;;1.77;;
76310;SDS011;65120;59.304;18.294;2023-07-30T05:16:46;2.15;;;1.88;;
76310;SDS011;65120;59.304;18.294;2023-07-30T05:19:15;2.90;;;1.67;;
76310;SDS011;65120;59.304;18.294;2023-07-30T05:21:42;2.80;;;1.80;;
76310;SDS011;65120;59.304;18.294;2023-07-30T05:24:09;4.30;;;1.83;;
76310;SDS011;65120;59.304;18.294;2023-07-30T05:26:36;4.88;;;1.98;;
76310;SDS011;65120;59.304;18.294;2023-07-30T05:29:03;5.30;;;2.22;;
76310;SDS011;65120;59.304;18.294;2023-07-30T05:31:29;3.33;;;1.65;;
76310;SDS011;65120;59.304;18.294;2023-07-30T05:33:56;5.13;;;1.90;;
76310;SDS011;65120;59.304;18.294;2023-07-30T05:36:25;6.72;;;2.28;;
76310;SDS011;65120;59.304;18.294;2023-07-30T05:38:52;5.55;;;2.05;;
76310;SDS011;65120;59.304;18.294;2023-07-30T05:41:18;4.03;;;1.90;;
76310;SDS011;65120;59.304;18.294;2023-07-30T05:43:46;3.13;;;2.03;;
76310;SDS011;65120;59.304;18.294;2023-07-30T05:46:14;6.65;;;1.90;;
76310;SDS011;65120;59.304;18.294;2023-07-30T05:48:40;9.02;;;2.38;;
76310;SDS011;65120;59.304;18.294;2023-07-30T05:51:07;2.83;;;1.90;;
76310;SDS011;65120;59.304;18.294;2023-07-30T05:53:36;3.63;;;2.22;;
76310;SDS011;65120;59.304;18.294;2023-07-30T05:56:03;3.75;;;1.65;;
76310;SDS011;65120;59.304;18.294;2023-07-30T05:58:30;4.63;;;1.63;;
76310;SDS011;65120;59.304;18.294;2023-07-30T06:00:57;7.75;;;2.00;;
76310;SDS011;65120;59.304;18.294;2023-07-30T06:03:24;4.30;;;1.70;;
76310;SDS011;65120;59.304;18.294;2023-07-30T06:05:50;3.30;;;2.55;;
76310;SDS011;65120;59.304;18.294;2023-07-30T06:08:17;6.93;;;2.28;;
76310;SDS011;65120;59.304;18.294;2023-07-30T06:10:46;6.53;;;2.17;;
76310;SDS011;65120;59.304;18.294;2023-07-30T06:13:13;5.50;;;1.60;;
76310;SDS011;65120;59.304;18.294;2023-07-30T06:15:40;4.03;;;1.73;;
76310;SDS011;65120;59.304;18.294;2023-07-30T06:18:07;4.55;;;2.10;;
76310;SDS011;65120;59.304;18.294;2023-07-30T06:20:33;4.20;;;2.08;;
76310;SDS011;65120;59.304;18.294;2023-07-30T06:23:01;5.63;;;1.77;;
76310;SDS011;65120;59.304;18.294;2023-07-30T06:25:28;2.00;;;1.70;;
76310;SDS011;65120;59.304;18.294;2023-07-30T06:27:57;2.15;;;1.77;;
76310;SDS011;65120;59.304;18.294;2023-07-30T06:30:24;3.65;;;2.45;;
76310;SDS011;65120;59.304;18.294;2023-07-30T06:32:51;5.50;;;1.90;;
76310;SDS011;65120;59.304;18.294;2023-07-30T06:35:18;1.92;;;1.58;;
76310;SDS011;65120;59.304;18.294;2023-07-30T06:37:45;6.00;;;1.60;;
76310;SDS011;65120;59.304;18.294;2023-07-30T06:40:12;3.60;;;1.73;;
76310;SDS011;65120;59.304;18.294;2023-07-30T06:42:39;6.03;;;2.35;;
76310;SDS011;65120;59.304;18.294;2023-07-30T06:45:08;5.85;;;1.60;;
76310;SDS011;65120;59.304;18.294;2023-07-30T06:47:35;4.00;;;2.40;;
76310;SDS011;65120;59.304;18.294;2023-07-30T06:50:03;4.90;;;1.83;;
76310;SDS011;65120;59.304;18.294;2023-07-30T06:52:33;2.20;;;1.77;;
76310;SDS011;65120;59.304;18.294;2023-07-30T06:55:00;3.88;;;1.90;;
76310;SDS011;65120;59.304;18.294;2023-07-30T06:57:27;2.33;;;1.75;;
76310;SDS011;65120;59.304;18.294;2023-07-30T06:59:54;4.70;;;1.73;;
76310;SDS011;65120;59.304;18.294;2023-07-30T07:02:23;6.90;;;1.88;;
76310;SDS011;65120;59.304;18.294;2023-07-30T07:04:50;2.20;;;1.98;;
76310;SDS011;65120;59.304;18.294;2023-07-30T07:07:17;2.30;;;1.55;;
76310;SDS011;65120;59.304;18.294;2023-07-30T07:09:44;2.42;;;1.55;;
76310;SDS011;65120;59.304;18.294;2023-07-30T07:12:10;3.45;;;1.73;;
76310;SDS011;65120;59.304;18.294;2023-07-30T07:14:37;2.42;;;1.73;;
76310;SDS011;65120;59.304;18.294;2023-07-30T07:17:06;3.20;;;1.58;;
76310;SDS011;65120;59.304;18.294;2023-07-30T07:19:34;6.50;;;1.95;;
76310;SDS011;65120;59.304;18.294;2023-07-30T07:22:02;2.35;;;1.88;;
76310;SDS011;65120;59.304;18.294;2023-07-30T07:24:29;4.97;;;1.95;;
76310;SDS011;65120;59.304;18.294;2023-07-30T07:26:56;3.38;;;1.58;;
76310;SDS011;65120;59.304;18.294;2023-07-30T07:29:23;2.35;;;1.50;;
76310;SDS011;65120;59.304;18.294;2023-07-30T07:31:50;2.25;;;1.63;;
76310;SDS011;65120;59.304;18.294;2023-07-30T07:34:18;4.65;;;1.40;;
76310;SDS011;65120;59.304;18.294;2023-07-30T07:36:46;3.85;;;1.13;;
76310;SDS011;65120;59.304;18.294;2023-07-30T07:39:13;3.58;;;1.52;;
76310;SDS011;65120;59.304;18.294;2023-07-30T07:41:40;3.70;;;1.67;;
76310;SDS011;65120;59.304;18.294;2023-07-30T07:44:07;2.58;;;1.25;;
76310;SDS011;65120;59.304;18.294;2023-07-30T07:46:34;2.38;;;1.00;;
76310;SDS011;65120;59.304;18.294;2023-07-30T07:49:01;2.60;;;1.13;;
76310;SDS011;65120;59.304;18.294;2023-07-30T07:51:28;1.85;;;1.33;;
76310;SDS011;65120;59.304;18.294;2023-07-30T07:53:56;2.15;;;1.30;;
76310;SDS011;65120;59.304;18.294;2023-07-30T07:56:23;2.35;;;1.27;;
76310;SDS011;65120;59.304;18.294;2023-07-30T07:58:50;2.22;;;1.25;;
76310;SDS011;65120;59.304;18.294;2023-07-30T08:01:17;1.20;;;1.02;;
76310;SDS011;65120;59.304;18.294;2023-07-30T08:03:44;3.35;;;1.33;;
76310;SDS011;65120;59.304;18.294;2023-07-30T08:06:11;4.25;;;1.42;;
76310;SDS011;65120;59.304;18.294;2023-07-30T08:08:37;2.78;;;1.10;;
76310;SDS011;65120;59.304;18.294;2023-07-30T08:11:06;2.65;;;1.13;;
76310;SDS011;65120;59.304;18.294;2023-07-30T08:13:34;2.53;;;1.40;;
76310;SDS011;65120;59.304;18.294;2023-07-30T08:16:02;2.88;;;1.20;;
76310;SDS011;65120;59.304;18.294;2023-07-30T08:18:29;1.38;;;1.10;;
76310;SDS011;65120;59.304;18.294;2023-07-30T08:20:56;2.55;;;1.10;;
76310;SDS011;65120;59.304;18.294;2023-07-30T08:23:23;3.47;;;1.25;;
76310;SDS011;65120;59.304;18.294;2023-07-30T08:25:50;1.20;;;1.10;;
76310;SDS011;65120;59.304;18.294;2023-07-30T08:28:18;2.95;;;1.20;;
76310;SDS011;65120;59.304;18.294;2023-07-30T08:30:45;4.75;;;1.55;;
76310;SDS011;65120;59.304;18.294;2023-07-30T08:33:12;2.15;;;1.42;;
76310;SDS011;65120;59.304;18.294;2023-07-30T08:35:39;2.38;;;1.33;;
76310;SDS011;65120;59.304;18.294;2023-07-30T08:38:06;1.67;;;1.33;;
76310;SDS011;65120;59.304;18.294;2023-07-30T08:40:32;2.38;;;1.92;;
76310;SDS011;65120;59.304;18.294;2023-07-30T08:43:00;3.83;;;1.63;;
76310;SDS011;65120;59.304;18.294;2023-07-30T08:45:31;2.65;;;1.60;;
76310;SDS011;65120;59.304;18.294;2023-07-30T08:47:58;3.33;;;1.30;;
76310;SDS011;65120;59.304;18.294;2023-07-30T08:50:25;3.58;;;1.17;;
76310;SDS011;65120;59.304;18.294;2023-07-30T08:52:52;3.75;;;1.17;;
76310;SDS011;65120;59.304;18.294;2023-07-30T08:55:21;3.55;;;1.55;;
76310;SDS011;65120;59.304;18.294;2023-07-30T08:57:49;2.10;;;1.10;;
76310;SDS011;65120;59.304;18.294;2023-07-30T09:00:17;2.40;;;1.23;;
76310;SDS011;65120;59.304;18.294;2023-07-30T09:02:47;1.58;;;1.23;;
76310;SDS011;65120;59.304;18.294;2023-07-30T09:05:17;1.98;;;1.33;;
76310;SDS011;65120;59.304;18.294;2023-07-30T09:07:45;2.25;;;1.13;;
76310;SDS011;65120;59.304;18.294;2023-07-30T09:10:12;2.28;;;1.60;;
76310;SDS011;65120;59.304;18.294;2023-07-30T09:12:40;2.15;;;1.30;;
76310;SDS011;65120;59.304;18.294;2023-07-30T09:15:07;1.70;;;1.40;;
76310;SDS011;65120;59.304;18.294;2023-07-30T09:17:34;2.28;;;0.93;;
76310;SDS011;65120;59.304;18.294;2023-07-30T09:20:03;5.35;;;1.80;;
76310;SDS011;65120;59.304;18.294;2023-07-30T09:22:32;3.40;;;1.15;;
76310;SDS011;65120;59.304;18.294;2023-07-30T09:25:01;1.70;;;0.90;;
76310;SDS011;65120;59.304;18.294;2023-07-30T09:27:31;3.03;;;1.05;;
76310;SDS011;65120;59.304;18.294;2023-07-30T09:29:59;1.50;;;0.93;;
76310;SDS011;65120;59.304;18.294;2023-07-30T09:32:27;2.67;;;0.98;;
76310;SDS011;65120;59.304;18.294;2023-07-30T09:34:55;2.60;;;1.00;;
76310;SDS011;65120;59.304;18.294;2023-07-30T09:37:31;1.83;;;1.05;;
76310;SDS011;65120;59.304;18.294;2023-07-30T09:40:02;3.03;;;1.38;;
76310;SDS011;65120;59.304;18.294;2023-07-30T09:42:30;1.35;;;0.80;;
76310;SDS011;65120;59.304;18.294;2023-07-30T09:44:59;0.60;;;0.50;;
76310;SDS011;65120;59.304;18.294;2023-07-30T09:47:26;0.80;;;0.68;;
76310;SDS011;65120;59.304;18.294;2023-07-30T09:49:53;2.05;;;1.05;;
76310;SDS011;65120;59.304;18.294;2023-07-30T09:52:20;2.72;;;1.00;;
76310;SDS011;65120;59.304;18.294;2023-07-30T09:54:49;1.33;;;0.80;;
76310;SDS011;65120;59.304;18.294;2023-07-30T09:57:18;1.52;;;0.90;;
76310;SDS011;65120;59.304;18.294;2023-07-30T09:59:45;1.77;;;1.00;;
76310;SDS011;65120;59.304;18.294;2023-07-30T10:02:12;2.22;;;1.00;;
76310;SDS011;65120;59.304;18.294;2023-07-30T10:04:41;2.45;;;1.00;;
76310;SDS011;65120;59.304;18.294;2023-07-30T10:07:10;1.00;;;0.90;;
76310;SDS011;65120;59.304;18.294;2023-07-30T10:09:42;1.02;;;1.00;;
76310;SDS011;65120;59.304;18.294;2023-07-30T10:12:13;2.08;;;1.13;;
76310;SDS011;65120;59.304;18.294;2023-07-30T10:14:44;1.13;;;1.02;;
76310;SDS011;65120;59.304;18.294;2023-07-30T10:17:11;1.85;;;1.08;;
76310;SDS011;65120;59.304;18.294;2023-07-30T10:19:38;1.70;;;1.58;;
76310;SDS011;65120;59.304;18.294;2023-07-30T10:22:19;2.95;;;1.40;;
76310;SDS011;65120;59.304;18.294;2023-07-30T10:24:55;1.08;;;0.80;;
76310;SDS011;65120;59.304;18.294;2023-07-30T10:27:24;1.58;;;1.00;;
76310;SDS011;65120;59.304;18.294;2023-07-30T10:35:07;1.92;;;1.13;;
76310;SDS011;65120;59.304;18.294;2023-07-30T10:37:34;1.67;;;1.58;;
76310;SDS011;65120;59.304;18.294;2023-07-30T10:40:05;1.70;;;1.60;;
76310;SDS011;65120;59.304;18.294;2023-07-30T10:42:44;2.80;;;1.52;;
76310;SDS011;65120;59.304;18.294;2023-07-30T10:45:11;2.35;;;1.30;;
76310;SDS011;65120;59.304;18.294;2023-07-30T10:47:40;2.88;;;1.52;;
76310;SDS011;65120;59.304;18.294;2023-07-30T10:50:07;2.05;;;1.95;;
76310;SDS011;65120;59.304;18.294;2023-07-30T10:52:37;1.58;;;1.27;;
76310;SDS011;65120;59.304;18.294;2023-07-30T10:55:04;1.67;;;1.58;;
76310;SDS011;65120;59.304;18.294;2023-07-30T10:57:32;2.50;;;1.40;;
76310;SDS011;65120;59.304;18.294;2023-07-30T11:00:00;1.90;;;1.50;;
76310;SDS011;65120;59.304;18.294;2023-07-30T11:02:29;2.78;;;1.65;;
76310;SDS011;65120;59.304;18.294;2023-07-30T11:04:56;2.35;;;2.10;;
76310;SDS011;65120;59.304;18.294;2023-07-30T11:07:23;2.85;;;1.52;;
76310;SDS011;65120;59.304;18.294;2023-07-30T11:09:58;4.63;;;2.00;;
76310;SDS011;65120;59.304;18.294;2023-07-30T11:12:27;2.30;;;1.95;;
76310;SDS011;65120;59.304;18.294;2023-07-30T11:15:01;1.88;;;1.65;;
76310;SDS011;65120;59.304;18.294;2023-07-30T11:17:28;1.80;;;1.70;;
76310;SDS011;65120;59.304;18.294;2023-07-30T11:19:55;1.40;;;1.30;;
76310;SDS011;65120;59.304;18.294;2023-07-30T11:22:28;2.60;;;1.67;;
76310;SDS011;65120;59.304;18.294;2023-07-30T11:24:56;2.88;;;1.63;;
76310;SDS011;65120;59.304;18.294;2023-07-30T11:27:24;1.67;;;1.40;;
76310;SDS011;65120;59.304;18.294;2023-07-30T11:29:54;2.05;;;1.33;;
76310;SDS011;65120;59.304;18.294;2023-07-30T11:32:23;1.35;;;1.23;;
76310;SDS011;65120;59.304;18.294;2023-07-30T11:34:51;1.73;;;1.35;;
76310;SDS011;65120;59.304;18.294;2023-07-30T11:37:19;2.95;;;1.35;;
76310;SDS011;65120;59.304;18.294;2023-07-30T11:39:46;1.67;;;1.27;;
76310;SDS011;65120;59.304;18.294;2023-07-30T11:42:14;1.58;;;1.33;;
76310;SDS011;65120;59.304;18.294;2023-07-30T11:44:41;1.42;;;1.15;;
76310;SDS011;65120;59.304;18.294;2023-07-30T11:47:08;2.13;;;1.73;;
76310;SDS011;65120;59.304;18.294;2023-07-30T11:49:37;1.95;;;1.77;;
76310;SDS011;65120;59.304;18.294;2023-07-30T11:52:04;2.50;;;1.38;;
76310;SDS011;65120;59.304;18.294;2023-07-30T11:54:32;2.15;;;1.95;;
76310;SDS011;65120;59.304;18.294;2023-07-30T11:56:59;2.05;;;1.17;;
76310;SDS011;65120;59.304;18.294;2023-07-30T11:59:26;2.78;;;1.75;;
76310;SDS011;65120;59.304;18.294;2023-07-30T12:01:53;3.35;;;1.23;;
76310;SDS011;65120;59.304;18.294;2023-07-30T12:04:20;3.50;;;1.40;;
76310;SDS011;65120;59.304;18.294;2023-07-30T12:06:51;5.53;;;1.33;;
76310;SDS011;65120;59.304;18.294;2023-07-30T12:09:19;1.95;;;1.45;;
76310;SDS011;65120;59.304;18.294;2023-07-30T12:11:49;4.07;;;1.58;;
76310;SDS011;65120;59.304;18.294;2023-07-30T12:14:17;3.20;;;1.75;;
76310;SDS011;65120;59.304;18.294;2023-07-30T12:16:45;2.85;;;1.33;;
76310;SDS011;65120;59.304;18.294;2023-07-30T12:19:12;2.20;;;1.38;;
76310;SDS011;65120;59.304;18.294;2023-07-30T12:21:39;1.50;;;1.23;;
76310;SDS011;65120;59.304;18.294;2023-07-30T12:24:07;3.15;;;1.90;;
76310;SDS011;65120;59.304;18.294;2023-07-30T12:26:34;2.60;;;1.73;;
76310;SDS011;65120;59.304;18.294;2023-07-30T12:29:01;2.22;;;1.60;;
76310;SDS011;65120;59.304;18.294;2023-07-30T12:31:28;1.80;;;1.40;;
76310;SDS011;65120;59.304;18.294;2023-07-30T12:33:55;1.30;;;1.20;;
76310;SDS011;65120;59.304;18.294;2023-07-30T12:36:22;5.45;;;1.88;;
76310;SDS011;65120;59.304;18.294;2023-07-30T12:38:48;3.15;;;1.60;;
76310;SDS011;65120;59.304;18.294;2023-07-30T12:41:18;1.98;;;1.30;;
76310;SDS011;65120;59.304;18.294;2023-07-30T12:43:50;3.08;;;1.80;;
76310;SDS011;65120;59.304;18.294;2023-07-30T12:46:17;2.00;;;1.00;;
76310;SDS011;65120;59.304;18.294;2023-07-30T12:48:44;1.65;;;1.50;;
76310;SDS011;65120;59.304;18.294;2023-07-30T12:51:11;4.15;;;2.03;;
76310;SDS011;65120;59.304;18.294;2023-07-30T12:53:38;5.43;;;1.30;;
76310;SDS011;65120;59.304;18.294;2023-07-30T12:56:05;4.22;;;1.33;;
76310;SDS011;65120;59.304;18.294;2023-07-30T12:58:33;3.25;;;1.70;;
76310;SDS011;65120;59.304;18.294;2023-07-30T13:01:02;2.95;;;1.42;;
76310;SDS011;65120;59.304;18.294;2023-07-30T13:03:29;1.65;;;1.10;;
76310;SDS011;65120;59.304;18.294;2023-07-30T13:05:56;2.17;;;1.90;;
76310;SDS011;65120;59.304;18.294;2023-07-30T13:08:23;2.15;;;1.40;;
76310;SDS011;65120;59.304;18.294;2023-07-30T13:10:50;2.50;;;1.83;;
76310;SDS011;65120;59.304;18.294;2023-07-30T13:13:17;1.92;;;1.00;;
76310;SDS011;65120;59.304;18.294;2023-07-30T13:15:45;1.33;;;1.23;;
76310;SDS011;65120;59.304;18.294;2023-07-30T13:18:12;3.30;;;1.65;;
76310;SDS011;65120;59.304;18.294;2023-07-30T13:20:39;1.83;;;1.58;;
76310;SDS011;65120;59.304;18.294;2023-07-30T13:23:06;2.13;;;1.40;;
76310;SDS011;65120;59.304;18.294;2023-07-30T13:25:33;1.70;;;1.52;;
76310;SDS011;65120;59.304;18.294;2023-07-30T13:28:00;5.15;;;1.90;;
76310;SDS011;65120;59.304;18.294;2023-07-30T13:30:27;6.10;;;1.70;;
76310;SDS011;65120;59.304;18.294;2023-07-30T13:32:55;3.42;;;2.10;;
76310;SDS011;65120;59.304;18.294;2023-07-30T13:35:22;2.63;;;1.48;;
76310;SDS011;65120;59.304;18.294;2023-07-30T13:37:49;3.38;;;1.73;;
76310;SDS011;65120;59.304;18.294;2023-07-30T13:40:15;3.72;;;2.80;;
76310;SDS011;65120;59.304;18.294;2023-07-30T13:42:42;4.43;;;2.22;;
76310;SDS011;65120;59.304;18.294;2023-07-30T13:45:09;1.48;;;1.23;;
76310;SDS011;65120;59.304;18.294;2023-07-30T13:47:36;1.92;;;0.65;;
76310;SDS011;65120;59.304;18.294;2023-07-30T13:50:05;3.53;;;0.50;;
76310;SDS011;65120;59.304;18.294;2023-07-30T13:52:33;2.58;;;0.47;;
76310;SDS011;65120;59.304;18.294;2023-07-30T13:55:01;1.42;;;0.50;;
76310;SDS011;65120;59.304;18.294;2023-07-30T13:57:28;1.25;;;0.40;;
76310;SDS011;65120;59.304;18.294;2023-07-30T13:59:55;0.70;;;0.50;;
76310;SDS011;65120;59.304;18.294;2023-07-30T14:02:21;0.85;;;0.40;;
76310;SDS011;65120;59.304;18.294;2023-07-30T14:04:48;0.95;;;0.45;;
76310;SDS011;65120;59.304;18.294;2023-07-30T14:07:17;1.00;;;0.47;;
76310;SDS011;65120;59.304;18.294;2023-07-30T14:09:44;0.63;;;0.50;;
76310;SDS011;65120;59.304;18.294;2023-07-30T14:12:11;1.88;;;0.50;;
76310;SDS011;65120;59.304;18.294;2023-07-30T14:14:37;0.70;;;0.40;;
76310;SDS011;65120;59.304;18.294;2023-07-30T14:17:04;1.23;;;0.50;;
76310;SDS011;65120;59.304;18.294;2023-07-30T14:19:32;0.90;;;0.50;;
76310;SDS011;65120;59.304;18.294;2023-07-30T14:21:59;2.17;;;0.63;;
76310;SDS011;65120;59.304;18.294;2023-07-30T14:24:27;0.90;;;0.50;;
76310;SDS011;65120;59.304;18.294;2023-07-30T14:26:54;1.95;;;0.50;;
76310;SDS011;65120;59.304;18.294;2023-07-30T14:29:21;1.15;;;0.40;;
76310;SDS011;65120;59.304;18.294;2023-07-30T14:31:48;0.55;;;0.50;;
76310;SDS011;65120;59.304;18.294;2023-07-30T14:34:16;1.73;;;0.40;;
76310;SDS011;65120;59.304;18.294;2023-07-30T14:36:43;0.47;;;0.40;;
76310;SDS011;65120;59.304;18.294;2023-07-30T14:39:09;1.85;;;0.70;;
76310;SDS011;65120;59.304;18.294;2023-07-30T14:41:38;1.17;;;0.50;;